Skip Navigation LinksHome page > Weather > Current weather Skip Navigation Links

Current Weather

Moundou, Chad

For information only: do not use for flight planning or navigation.
Latest weather
Observation time Tuesday, October 6, 2015 4:00 PM WAT
Local time Tuesday, October 6, 2015 5:17 PM WAT
Flight conditions Visual Meteorological Conditions
Wind direction Northwest (320°)
Wind speed 12 mph
Visibility 6.2 mi.
Sky condition
Ceiling unlimited
Cloud layer few clouds 4,000 ft.
Temperature 90°F
Dewpoint 72°F
Altimeter 29.80 in.Hg
Derived measurements
Relative humidity 56%
Heat index 96°F
Density altitude 2865 ft.
METAR FTTD 061500Z 32010KT 9999 FEW040 32/22 Q1009


Location code

InnerDrive.Weather 4.0.5722.1 Release CLR 4.0.30319.34014
Copyright ©2015 Inner Drive Technology. All rights reserved. Portions Copyright ©1986-2015 David Braverman.

Find weather

Site navigation

Skip Navigation Links

Place info

Page info

PayPal - The safer, easier way to pay online!

Return home.

Copyright ©2015 Inner Drive Technology. Purveyors of fine, hand-crafted computer software. Page printed 2015-10-06T16:17:29 UTC.